createdAt,value
2022-09-03T00:00:18.305Z,75
2022-09-03T00:01:15.192Z,75
2022-09-03T00:02:17.462Z,75
2022-09-03T00:03:14.105Z,75
2022-09-03T00:04:29.982Z,75
2022-09-03T00:05:20.202Z,75
2022-09-03T00:06:11.595Z,75
2022-09-03T00:07:21.123Z,75
2022-09-03T00:08:10.831Z,75
2022-09-03T00:09:22.343Z,75
2022-09-03T00:10:17.714Z,75
2022-09-03T00:11:19.701Z,75
2022-09-03T00:12:10.522Z,75
2022-09-03T00:13:17.675Z,75
2022-09-03T00:14:15.998Z,75
2022-09-03T00:15:16.270Z,75
2022-09-03T00:16:18.687Z,75
2022-09-03T00:17:10.618Z,75
2022-09-03T00:18:17.934Z,76
2022-09-03T00:19:17.650Z,76
2022-09-03T00:20:10.796Z,76
2022-09-03T00:21:17.698Z,76
2022-09-03T00:22:14.713Z,76
2022-09-03T00:23:19.693Z,76
2022-09-03T00:24:20.568Z,76
2022-09-03T00:25:20.809Z,76
2022-09-03T00:26:14.451Z,76
2022-09-03T00:27:17.029Z,76
2022-09-03T00:28:17.671Z,76
2022-09-03T00:29:09.467Z,76
2022-09-03T00:30:24.191Z,76
2022-09-03T00:31:17.305Z,76
2022-09-03T00:32:19.242Z,76
2022-09-03T00:33:19.910Z,76
2022-09-03T00:34:14.606Z,76
2022-09-03T00:35:19.347Z,76
2022-09-03T00:36:11.499Z,76
2022-09-03T00:37:22.881Z,77
2022-09-03T00:38:11.415Z,77
2022-09-03T00:39:21.323Z,77
2022-09-03T00:40:12.374Z,77
2022-09-03T00:41:16.841Z,77
2022-09-03T00:42:08.794Z,77
2022-09-03T00:43:16.941Z,77
2022-09-03T00:44:18.981Z,77
2022-09-03T00:45:20.461Z,77
2022-09-03T00:46:16.559Z,77
2022-09-03T00:47:15.271Z,77
2022-09-03T00:48:32.311Z,77
2022-09-03T00:49:19.141Z,77
2022-09-03T00:50:18.258Z,77
2022-09-03T00:51:12.967Z,77
2022-09-03T00:52:17.681Z,77
2022-09-03T00:53:17.945Z,77
2022-09-03T00:54:17.720Z,77
2022-09-03T00:55:17.712Z,77
2022-09-03T00:56:15.608Z,77
2022-09-03T00:57:17.755Z,77
2022-09-03T00:58:18.851Z,77
2022-09-03T00:59:20.178Z,77
2022-09-03T01:00:11.475Z,77
2022-09-03T01:01:19.376Z,77
2022-09-03T01:02:16.714Z,77
2022-09-03T01:03:20.914Z,78
2022-09-03T01:04:15.631Z,78
2022-09-03T01:05:18.206Z,77
2022-09-03T01:06:16.423Z,78
2022-09-03T01:07:17.123Z,78
2022-09-03T01:08:17.479Z,78
2022-09-03T01:09:17.179Z,77
2022-09-03T01:10:15.379Z,77
2022-09-03T01:11:15.418Z,77
2022-09-03T01:12:18.390Z,77
2022-09-03T01:13:11.938Z,78
2022-09-03T01:14:18.741Z,78
2022-09-03T01:15:17.335Z,78
2022-09-03T01:16:22.320Z,78
2022-09-03T01:17:11.826Z,78
2022-09-03T01:18:16.474Z,78
2022-09-03T01:19:18.311Z,78
2022-09-03T01:20:28.743Z,78
2022-09-03T01:22:15.531Z,78
2022-09-03T01:23:17.746Z,78
2022-09-03T01:24:09.763Z,78
2022-09-03T01:25:21.127Z,78
2022-09-03T01:26:17.474Z,78
2022-09-03T01:27:18.076Z,78
2022-09-03T01:28:12.272Z,78
2022-09-03T01:29:20.827Z,78
2022-09-03T01:30:13.608Z,78
2022-09-03T01:31:17.281Z,78
2022-09-03T01:32:17.759Z,78
2022-09-03T01:33:10.571Z,78
2022-09-03T01:34:20.522Z,78
2022-09-03T01:35:17.045Z,78
2022-09-03T01:36:13.665Z,78
2022-09-03T01:37:18.103Z,78
2022-09-03T01:38:11.939Z,78
2022-09-03T01:39:15.218Z,78
2022-09-03T01:40:10.662Z,78
2022-09-03T01:41:15.910Z,78
2022-09-03T01:42:12.145Z,78
2022-09-03T01:43:21.677Z,78
2022-09-03T01:44:10.029Z,78
2022-09-03T01:45:18.818Z,78
2022-09-03T01:46:09.589Z,78
2022-09-03T01:47:19.406Z,78
2022-09-03T01:48:18.275Z,78
2022-09-03T01:49:15.921Z,78
2022-09-03T01:50:17.173Z,78
2022-09-03T01:51:13.355Z,78
2022-09-03T01:52:17.113Z,78
2022-09-03T01:53:16.767Z,78
2022-09-03T01:54:27.142Z,78
2022-09-03T01:55:16.398Z,78
2022-09-03T01:56:20.732Z,78
2022-09-03T01:57:43.990Z,78
2022-09-03T01:58:18.286Z,78
2022-09-03T01:59:18.932Z,78
2022-09-03T02:00:13.712Z,78
2022-09-03T02:01:24.595Z,78
2022-09-03T02:02:09.190Z,78
2022-09-03T02:03:15.641Z,78
2022-09-03T02:04:15.959Z,78
2022-09-03T02:05:18.932Z,78
2022-09-03T02:06:09.041Z,78
2022-09-03T02:07:19.711Z,78
2022-09-03T02:08:20.350Z,78
2022-09-03T02:09:17.411Z,78
2022-09-03T02:10:11.964Z,78
2022-09-03T02:11:20.405Z,78
2022-09-03T02:12:19.340Z,78
2022-09-03T02:13:18.378Z,78
2022-09-03T02:14:18.636Z,78
2022-09-03T02:15:17.104Z,78
2022-09-03T02:16:17.371Z,78
2022-09-03T02:17:17.030Z,78
2022-09-03T02:18:19.073Z,78
2022-09-03T02:19:09.727Z,79
2022-09-03T02:20:12.537Z,79
2022-09-03T02:21:18.439Z,79
2022-09-03T02:22:16.183Z,79
2022-09-03T02:23:18.195Z,79
2022-09-03T02:24:12.597Z,79
2022-09-03T02:25:19.189Z,79
2022-09-03T02:26:09.426Z,79
2022-09-03T02:27:17.403Z,79
2022-09-03T02:28:23.877Z,79
2022-09-03T02:29:16.992Z,79
2022-09-03T02:30:20.500Z,79
2022-09-03T02:31:16.668Z,79
2022-09-03T02:32:26.880Z,79
2022-09-03T02:34:18.162Z,79
2022-09-03T02:35:19.651Z,79
2022-09-03T02:36:17.474Z,79
2022-09-03T02:37:17.147Z,79
2022-09-03T02:38:13.934Z,79
2022-09-03T02:39:22.804Z,79
2022-09-03T02:40:13.094Z,79
2022-09-03T02:41:18.849Z,79
2022-09-03T02:42:12.221Z,79
2022-09-03T02:43:16.885Z,79
2022-09-03T02:44:17.202Z,79
2022-09-03T02:45:19.374Z,79
2022-09-03T02:47:16.299Z,79
2022-09-03T02:48:18.004Z,79
2022-09-03T02:49:18.474Z,79
2022-09-03T02:50:19.144Z,79
2022-09-03T02:51:19.943Z,79
2022-09-03T02:52:17.734Z,79
2022-09-03T02:53:19.814Z,79
2022-09-03T02:54:23.390Z,79
2022-09-03T02:55:18.020Z,79
2022-09-03T02:56:13.816Z,79
2022-09-03T02:57:29.309Z,79
2022-09-03T02:58:18.471Z,79
2022-09-03T02:59:19.481Z,79
2022-09-03T03:00:20.459Z,79
2022-09-03T03:01:18.127Z,79
2022-09-03T03:02:17.702Z,79
2022-09-03T03:03:17.505Z,79
2022-09-03T03:04:16.463Z,79
2022-09-03T03:05:15.728Z,79
2022-09-03T03:06:17.473Z,79
2022-09-03T03:07:16.435Z,79
2022-09-03T03:08:16.636Z,79
2022-09-03T03:09:24.257Z,79
2022-09-03T03:10:09.802Z,79
2022-09-03T03:11:18.285Z,79
2022-09-03T03:12:14.304Z,79
2022-09-03T03:13:16.867Z,79
2022-09-03T03:14:17.110Z,79
2022-09-03T03:15:16.244Z,79
2022-09-03T03:16:16.775Z,79
2022-09-03T03:17:16.663Z,79
2022-09-03T03:18:15.435Z,79
2022-09-03T03:19:15.487Z,79
2022-09-03T03:20:15.575Z,79
2022-09-03T03:21:16.514Z,79
2022-09-03T03:22:17.135Z,79
2022-09-03T03:23:12.847Z,79
2022-09-03T03:24:14.972Z,79
2022-09-03T03:25:16.264Z,79
2022-09-03T03:26:16.548Z,79
2022-09-03T03:27:17.865Z,79
2022-09-03T03:28:14.020Z,79
2022-09-03T03:29:19.051Z,79
2022-09-03T03:30:16.733Z,79
2022-09-03T03:31:11.784Z,79
2022-09-03T03:32:13.838Z,79
2022-09-03T03:33:15.095Z,79
2022-09-03T03:34:15.446Z,79
2022-09-03T03:35:18.222Z,79
2022-09-03T03:36:14.440Z,79
2022-09-03T03:37:16.302Z,79
2022-09-03T03:38:16.365Z,79
2022-09-03T03:39:21.945Z,79
2022-09-03T03:40:13.897Z,80
2022-09-03T03:41:11.994Z,80
2022-09-03T03:42:17.825Z,79
2022-09-03T03:43:17.183Z,79
2022-09-03T03:44:16.281Z,80
2022-09-03T03:45:16.431Z,80
2022-09-03T03:46:17.119Z,80
2022-09-03T03:47:18.394Z,79
2022-09-03T03:48:20.221Z,79
2022-09-03T03:49:15.624Z,79
2022-09-03T03:50:17.839Z,79
2022-09-03T03:51:19.509Z,80
2022-09-03T03:52:17.658Z,80
2022-09-03T03:53:18.530Z,80
2022-09-03T03:54:22.265Z,79
2022-09-03T03:55:22.290Z,79
2022-09-03T03:56:16.972Z,80
2022-09-03T03:57:16.781Z,80
2022-09-03T03:58:18.803Z,80
2022-09-03T03:59:12.294Z,80
2022-09-03T04:00:20.173Z,80
2022-09-03T04:01:18.310Z,80
2022-09-03T04:02:17.093Z,80
2022-09-03T04:03:19.607Z,80
2022-09-03T04:04:11.085Z,80
2022-09-03T04:05:27.108Z,80
2022-09-03T04:06:09.688Z,80
2022-09-03T04:07:16.735Z,80
2022-09-03T04:08:10.847Z,80
2022-09-03T04:09:21.383Z,80
2022-09-03T04:10:11.178Z,80
2022-09-03T04:11:19.648Z,80
2022-09-03T04:12:10.840Z,80
2022-09-03T04:13:16.983Z,80
2022-09-03T04:14:16.958Z,80
2022-09-03T04:15:18.036Z,80
2022-09-03T04:16:10.098Z,80
2022-09-03T04:17:21.022Z,80
2022-09-03T04:18:16.009Z,80
2022-09-03T04:19:14.966Z,80
2022-09-03T04:20:17.815Z,80
2022-09-03T04:21:14.445Z,80
2022-09-03T04:22:17.734Z,80
2022-09-03T04:23:18.622Z,80
2022-09-03T04:24:12.086Z,80
2022-09-03T04:25:23.206Z,80
2022-09-03T04:26:10.171Z,80
2022-09-03T04:27:19.553Z,80
2022-09-03T04:28:16.746Z,80
2022-09-03T04:29:18.300Z,80
2022-09-03T04:30:16.403Z,80
2022-09-03T04:31:20.306Z,80
2022-09-03T04:32:18.501Z,80
2022-09-03T04:33:22.553Z,80
2022-09-03T04:34:17.748Z,80
2022-09-03T04:35:13.543Z,80
2022-09-03T04:36:16.532Z,80
2022-09-03T04:37:17.353Z,80
2022-09-03T04:38:15.371Z,80
2022-09-03T04:39:16.027Z,80
2022-09-03T04:40:16.789Z,80
2022-09-03T04:41:16.613Z,80
2022-09-03T04:42:16.813Z,80
2022-09-03T04:43:11.529Z,80
2022-09-03T04:44:16.851Z,80
2022-09-03T04:45:16.063Z,80
2022-09-03T04:46:23.022Z,80
2022-09-03T04:47:16.325Z,80
2022-09-03T04:48:19.103Z,80
2022-09-03T04:49:20.905Z,80
2022-09-03T04:51:16.480Z,80
2022-09-03T04:52:17.372Z,80
2022-09-03T04:53:19.721Z,80
2022-09-03T04:54:18.096Z,80
2022-09-03T04:55:08.976Z,80
2022-09-03T04:56:14.987Z,80
2022-09-03T04:57:17.538Z,80
2022-09-03T04:58:20.105Z,80
2022-09-03T04:59:15.490Z,80
2022-09-03T05:00:19.689Z,80
2022-09-03T05:01:17.025Z,80
2022-09-03T05:02:16.571Z,80
2022-09-03T05:03:16.450Z,80
2022-09-03T05:04:14.583Z,80
2022-09-03T05:05:24.888Z,80
2022-09-03T05:06:13.606Z,80
2022-09-03T05:07:15.456Z,80
2022-09-03T05:08:14.685Z,80
2022-09-03T05:09:20.508Z,80
2022-09-03T05:10:15.671Z,80
2022-09-03T05:11:13.972Z,80
2022-09-03T05:12:23.255Z,80
2022-09-03T05:13:12.780Z,80
2022-09-03T05:14:16.969Z,80
2022-09-03T05:15:16.527Z,80
2022-09-03T05:16:16.499Z,80
2022-09-03T05:17:16.514Z,80
2022-09-03T05:18:16.161Z,80
2022-09-03T05:19:18.853Z,80
2022-09-03T05:20:17.658Z,80
2022-09-03T05:21:14.856Z,80
2022-09-03T05:22:18.950Z,80
2022-09-03T05:23:16.535Z,80
2022-09-03T05:24:17.067Z,80
2022-09-03T05:25:15.586Z,80
2022-09-03T05:26:18.182Z,80
2022-09-03T05:27:18.016Z,80
2022-09-03T05:28:12.008Z,80
2022-09-03T05:29:16.820Z,80
2022-09-03T05:30:16.222Z,80
2022-09-03T05:31:16.839Z,80
2022-09-03T05:32:17.218Z,80
2022-09-03T05:33:14.406Z,80
2022-09-03T05:34:18.752Z,80
2022-09-03T05:35:16.312Z,80
2022-09-03T05:36:17.365Z,80
2022-09-03T05:37:14.875Z,80
2022-09-03T05:38:13.066Z,80
2022-09-03T05:39:17.590Z,80
2022-09-03T05:40:17.621Z,80
2022-09-03T05:41:14.730Z,80
2022-09-03T05:42:14.736Z,80
2022-09-03T05:43:14.994Z,80
2022-09-03T05:44:17.739Z,80
2022-09-03T05:45:17.079Z,80
2022-09-03T05:46:18.384Z,80
2022-09-03T05:47:17.947Z,80
2022-09-03T05:48:15.559Z,80
2022-09-03T05:49:16.803Z,80
2022-09-03T05:50:16.642Z,80
2022-09-03T05:51:14.929Z,80
2022-09-03T05:52:15.667Z,80
2022-09-03T05:53:14.728Z,80
2022-09-03T05:54:15.707Z,80
2022-09-03T05:55:21.831Z,80
2022-09-03T05:56:17.755Z,80
2022-09-03T05:57:15.360Z,80
2022-09-03T05:58:15.553Z,80
2022-09-03T05:59:16.042Z,80
2022-09-03T06:00:18.743Z,80
2022-09-03T06:01:19.546Z,80
2022-09-03T06:02:10.006Z,80
2022-09-03T06:03:17.309Z,80
2022-09-03T06:04:14.842Z,80
2022-09-03T06:05:16.280Z,80
2022-09-03T06:06:12.954Z,80
2022-09-03T06:07:13.955Z,79
2022-09-03T06:08:18.939Z,79
2022-09-03T06:09:10.319Z,79
2022-09-03T06:10:16.081Z,79
2022-09-03T06:11:14.616Z,79
2022-09-03T06:12:18.069Z,79
2022-09-03T06:13:20.242Z,79
2022-09-03T06:14:15.279Z,79
2022-09-03T06:15:19.493Z,78
2022-09-03T06:16:11.416Z,78
2022-09-03T06:17:19.725Z,78
2022-09-03T06:18:09.423Z,78
2022-09-03T06:19:15.482Z,78
2022-09-03T06:20:15.783Z,78
2022-09-03T06:21:19.460Z,78
2022-09-03T06:22:15.570Z,78
2022-09-03T06:23:14.274Z,78
2022-09-03T06:24:14.224Z,78
2022-09-03T06:25:19.540Z,78
2022-09-03T06:26:18.732Z,78
2022-09-03T06:27:18.660Z,77
2022-09-03T06:28:16.500Z,77
2022-09-03T06:29:10.220Z,77
2022-09-03T06:30:19.559Z,77
2022-09-03T06:31:14.615Z,77
2022-09-03T06:32:15.401Z,77
2022-09-03T06:33:16.616Z,77
2022-09-03T06:34:17.924Z,76
2022-09-03T06:35:17.079Z,76
2022-09-03T06:36:15.575Z,76
2022-09-03T06:37:14.973Z,76
2022-09-03T06:38:16.745Z,76
2022-09-03T06:39:18.245Z,76
2022-09-03T06:40:15.239Z,76
2022-09-03T06:41:15.266Z,76
2022-09-03T06:42:18.171Z,76
2022-09-03T06:43:14.902Z,75
2022-09-03T06:44:17.417Z,75
2022-09-03T06:45:16.833Z,75
2022-09-03T06:46:14.763Z,75
2022-09-03T06:47:16.750Z,75
2022-09-03T06:48:16.664Z,75
2022-09-03T06:49:17.497Z,74
2022-09-03T06:50:17.554Z,74
2022-09-03T06:51:15.727Z,74
2022-09-03T06:52:18.980Z,74
2022-09-03T06:53:17.884Z,74
2022-09-03T06:54:17.481Z,74
2022-09-03T06:55:17.439Z,74
2022-09-03T06:56:15.357Z,73
2022-09-03T06:57:15.292Z,73
2022-09-03T06:58:20.200Z,73
2022-09-03T06:59:09.236Z,73
2022-09-03T07:00:16.245Z,73
2022-09-03T07:01:17.082Z,73
2022-09-03T07:02:16.344Z,73
2022-09-03T07:03:16.071Z,73
2022-09-03T07:04:16.978Z,73
2022-09-03T07:05:15.521Z,73
2022-09-03T07:06:19.528Z,73
2022-09-03T07:07:12.882Z,73
2022-09-03T07:08:20.928Z,73
2022-09-03T07:09:21.121Z,73
2022-09-03T07:10:19.213Z,73
2022-09-03T07:11:12.609Z,73
2022-09-03T07:12:15.370Z,73
2022-09-03T07:13:16.906Z,73
2022-09-03T07:14:15.354Z,73
2022-09-03T07:15:14.623Z,72
2022-09-03T07:16:19.602Z,72
2022-09-03T07:17:15.415Z,72
2022-09-03T07:18:17.809Z,72
2022-09-03T07:19:19.086Z,72
2022-09-03T07:20:20.007Z,71
2022-09-03T07:21:17.124Z,71
2022-09-03T07:22:18.226Z,71
2022-09-03T07:23:15.307Z,71
2022-09-03T07:24:11.661Z,71
2022-09-03T07:25:20.619Z,71
2022-09-03T07:26:17.454Z,71
2022-09-03T07:27:19.261Z,71
2022-09-03T07:28:14.458Z,71
2022-09-03T07:29:14.488Z,71
2022-09-03T07:30:18.573Z,71
2022-09-03T07:31:15.480Z,71
2022-09-03T07:32:14.331Z,71
2022-09-03T07:33:18.153Z,71
2022-09-03T07:34:16.508Z,71
2022-09-03T07:35:16.712Z,71
2022-09-03T07:36:14.724Z,71
2022-09-03T07:37:15.647Z,71
2022-09-03T07:38:16.977Z,71
2022-09-03T07:39:15.342Z,71
2022-09-03T07:40:15.230Z,71
2022-09-03T07:41:33.092Z,71
2022-09-03T07:42:13.853Z,71
2022-09-03T07:43:17.806Z,71
2022-09-03T07:44:10.333Z,71
2022-09-03T07:45:17.303Z,71
2022-09-03T07:46:18.602Z,71
2022-09-03T07:47:08.925Z,71
2022-09-03T07:48:17.460Z,70
2022-09-03T07:49:18.316Z,70
2022-09-03T07:50:16.761Z,70
2022-09-03T07:51:17.620Z,70
2022-09-03T07:52:20.238Z,70
2022-09-03T07:53:18.187Z,70
2022-09-03T07:54:18.697Z,70
2022-09-03T07:55:13.913Z,70
2022-09-03T07:56:17.849Z,70
2022-09-03T07:57:13.979Z,70
2022-09-03T07:58:18.989Z,70
2022-09-03T07:59:16.310Z,70
2022-09-03T08:00:17.258Z,70
2022-09-03T08:01:20.271Z,70
2022-09-03T08:02:14.347Z,70
2022-09-03T08:03:17.292Z,70
2022-09-03T08:04:12.008Z,69
2022-09-03T08:05:14.467Z,70
2022-09-03T08:06:19.157Z,70
2022-09-03T08:07:12.215Z,70
2022-09-03T08:08:19.730Z,69
2022-09-03T08:09:19.646Z,70
2022-09-03T08:10:14.129Z,70
2022-09-03T08:11:19.520Z,69
2022-09-03T08:12:16.957Z,69
2022-09-03T08:13:18.385Z,69
2022-09-03T08:14:13.230Z,69
2022-09-03T08:15:16.354Z,69
2022-09-03T08:16:17.440Z,69
2022-09-03T08:17:15.352Z,69
2022-09-03T08:18:17.981Z,69
2022-09-03T08:19:18.605Z,69
2022-09-03T08:20:12.411Z,69
2022-09-03T08:21:16.983Z,69
2022-09-03T08:22:11.541Z,69
2022-09-03T08:23:18.737Z,69
2022-09-03T08:24:09.425Z,69
2022-09-03T08:25:19.987Z,68
2022-09-03T08:26:17.047Z,68
2022-09-03T08:27:13.831Z,68
2022-09-03T08:28:17.263Z,68
2022-09-03T08:29:15.197Z,68
2022-09-03T08:30:10.063Z,68
2022-09-03T08:31:16.827Z,68
2022-09-03T08:32:20.470Z,68
2022-09-03T08:33:14.920Z,68
2022-09-03T08:34:17.090Z,67
2022-09-03T08:35:17.366Z,67
2022-09-03T08:36:15.013Z,67
2022-09-03T08:37:17.192Z,67
2022-09-03T08:38:15.168Z,67
2022-09-03T08:39:22.434Z,67
2022-09-03T08:40:14.323Z,67
2022-09-03T08:41:18.887Z,67
2022-09-03T08:42:12.634Z,67
2022-09-03T08:43:17.166Z,67
2022-09-03T08:44:17.950Z,67
2022-09-03T08:45:17.774Z,67
2022-09-03T08:46:11.219Z,67
2022-09-03T08:47:17.275Z,67
2022-09-03T08:48:16.594Z,67
2022-09-03T08:49:15.843Z,67
2022-09-03T08:50:15.781Z,67
2022-09-03T08:51:19.200Z,67
2022-09-03T08:52:11.157Z,67
2022-09-03T08:53:14.812Z,67
2022-09-03T08:54:13.224Z,67
2022-09-03T08:55:14.417Z,67
2022-09-03T08:56:20.164Z,67
2022-09-03T08:57:16.371Z,67
2022-09-03T08:58:15.797Z,67
2022-09-03T08:59:17.337Z,67
2022-09-03T09:00:16.361Z,67
2022-09-03T09:01:16.979Z,67
2022-09-03T09:02:20.649Z,66
2022-09-03T09:03:12.807Z,66
2022-09-03T09:04:16.563Z,67
2022-09-03T09:05:26.904Z,67
2022-09-03T09:06:14.718Z,67
2022-09-03T09:07:15.577Z,67
2022-09-03T09:08:20.184Z,67
2022-09-03T09:09:21.660Z,67
2022-09-03T09:10:14.756Z,67
2022-09-03T09:11:15.346Z,66
2022-09-03T09:12:20.506Z,66
2022-09-03T09:13:15.575Z,66
2022-09-03T09:14:10.305Z,66
2022-09-03T09:15:18.947Z,66
2022-09-03T09:16:15.048Z,66
2022-09-03T09:17:15.423Z,66
2022-09-03T09:18:18.073Z,67
2022-09-03T09:19:14.261Z,66
2022-09-03T09:20:11.577Z,66
2022-09-03T09:21:17.813Z,66
2022-09-03T09:22:15.506Z,66
2022-09-03T09:23:15.434Z,66
2022-09-03T09:24:13.052Z,66
2022-09-03T09:25:18.189Z,66
2022-09-03T09:26:18.512Z,66
2022-09-03T09:27:22.265Z,66
2022-09-03T09:28:16.304Z,66
2022-09-03T09:29:16.519Z,66
2022-09-03T09:30:10.493Z,66
2022-09-03T09:31:21.586Z,66
2022-09-03T09:32:14.933Z,66
2022-09-03T09:33:18.250Z,66
2022-09-03T09:34:16.514Z,66
2022-09-03T09:35:30.517Z,66
2022-09-03T09:37:15.486Z,66
2022-09-03T09:38:18.575Z,66
2022-09-03T09:39:18.837Z,66
2022-09-03T09:40:17.194Z,66
2022-09-03T09:41:16.391Z,66
2022-09-03T09:42:16.646Z,66
2022-09-03T09:43:15.884Z,66
2022-09-03T09:44:20.603Z,66
2022-09-03T09:45:12.208Z,66
2022-09-03T09:46:17.090Z,66
2022-09-03T09:47:09.629Z,66
2022-09-03T09:48:15.284Z,65
2022-09-03T09:49:13.319Z,65
2022-09-03T09:50:31.151Z,66
2022-09-03T09:51:15.093Z,66
2022-09-03T09:52:18.374Z,65
2022-09-03T09:53:17.245Z,65
2022-09-03T09:54:14.975Z,65
2022-09-03T09:55:16.626Z,65
2022-09-03T09:56:15.944Z,65
2022-09-03T09:57:16.891Z,65
2022-09-03T09:58:26.861Z,65
2022-09-03T09:59:16.740Z,65
2022-09-03T10:00:17.998Z,65
2022-09-03T10:01:14.931Z,65
2022-09-03T10:02:26.348Z,66
2022-09-03T10:03:16.204Z,66
2022-09-03T10:04:21.267Z,66
2022-09-03T10:05:17.325Z,66
2022-09-03T10:06:16.285Z,65
2022-09-03T10:07:20.246Z,65
2022-09-03T10:08:12.109Z,65
2022-09-03T10:09:16.309Z,65
2022-09-03T10:10:24.796Z,65
2022-09-03T10:12:20.985Z,65
2022-09-03T10:13:16.548Z,65
2022-09-03T10:14:24.492Z,65
2022-09-03T10:15:10.149Z,65
2022-09-03T10:16:18.240Z,64
2022-09-03T10:17:15.953Z,64
2022-09-03T10:18:15.407Z,64
2022-09-03T10:19:12.574Z,64
2022-09-03T10:20:17.354Z,64
2022-09-03T10:21:18.228Z,64
2022-09-03T10:22:18.848Z,64
2022-09-03T10:23:14.633Z,64
2022-09-03T10:24:15.362Z,64
2022-09-03T10:25:16.729Z,64
2022-09-03T10:26:15.504Z,64
2022-09-03T10:27:16.914Z,63
2022-09-03T10:28:19.894Z,63
2022-09-03T10:29:19.613Z,63
2022-09-03T10:30:16.648Z,62
2022-09-03T10:31:18.532Z,62
2022-09-03T10:32:10.509Z,62
2022-09-03T10:33:17.599Z,62
2022-09-03T10:34:13.698Z,62
2022-09-03T10:35:18.354Z,62
2022-09-03T10:36:13.283Z,62
2022-09-03T10:37:19.334Z,61
2022-09-03T10:38:18.791Z,61
2022-09-03T10:39:20.951Z,61
2022-09-03T10:40:15.882Z,61
2022-09-03T10:41:17.856Z,61
2022-09-03T10:42:16.697Z,61
2022-09-03T10:43:08.308Z,61
2022-09-03T10:44:12.708Z,60
2022-09-03T10:45:15.427Z,60
2022-09-03T10:46:19.482Z,60
2022-09-03T10:47:17.140Z,61
2022-09-03T10:48:18.617Z,61
2022-09-03T10:49:15.217Z,61
2022-09-03T10:50:16.178Z,60
2022-09-03T10:51:14.224Z,61
2022-09-03T10:52:24.453Z,61
2022-09-03T10:53:09.672Z,61
2022-09-03T10:54:18.290Z,61
2022-09-03T10:55:17.615Z,61
2022-09-03T10:56:14.137Z,61
2022-09-03T10:57:17.425Z,61
2022-09-03T10:58:16.950Z,61
2022-09-03T10:59:15.710Z,61
2022-09-03T11:00:17.039Z,61
2022-09-03T11:01:21.795Z,61
2022-09-03T11:02:09.590Z,61
2022-09-03T11:03:23.328Z,60
2022-09-03T11:04:16.861Z,60
2022-09-03T11:05:14.827Z,61
2022-09-03T11:06:14.905Z,61
2022-09-03T11:07:17.065Z,61
2022-09-03T11:08:18.002Z,61
2022-09-03T11:09:20.337Z,60
2022-09-03T11:10:17.339Z,60
2022-09-03T11:11:17.026Z,60
2022-09-03T11:12:15.699Z,60
2022-09-03T11:13:17.075Z,60
2022-09-03T11:14:15.850Z,59
2022-09-03T11:15:18.871Z,59
2022-09-03T11:16:12.383Z,59
2022-09-03T11:17:12.617Z,60
2022-09-03T11:18:17.545Z,60
2022-09-03T11:19:17.260Z,60
2022-09-03T11:20:18.063Z,60
2022-09-03T11:21:18.673Z,60
2022-09-03T11:22:22.975Z,60
2022-09-03T11:23:14.520Z,60
2022-09-03T11:24:17.221Z,60
2022-09-03T11:25:16.576Z,60
2022-09-03T11:26:13.591Z,60
2022-09-03T11:27:18.620Z,60
2022-09-03T11:28:15.870Z,60
2022-09-03T11:29:20.338Z,60
2022-09-03T11:30:18.770Z,60
2022-09-03T11:31:19.674Z,60
2022-09-03T11:32:16.421Z,60
2022-09-03T11:33:17.080Z,60
2022-09-03T11:34:12.436Z,60
2022-09-03T11:35:18.714Z,60
2022-09-03T11:36:15.385Z,59
2022-09-03T11:37:17.851Z,59
2022-09-03T11:38:17.657Z,59
2022-09-03T11:39:24.021Z,59
2022-09-03T11:40:13.941Z,59
2022-09-03T11:41:16.252Z,60
2022-09-03T11:42:15.163Z,60
2022-09-03T11:43:17.799Z,60
2022-09-03T11:44:19.087Z,60
2022-09-03T11:45:14.608Z,60
2022-09-03T11:46:15.601Z,60
2022-09-03T11:47:16.632Z,60
2022-09-03T11:48:18.265Z,60
2022-09-03T11:49:15.286Z,60
2022-09-03T11:50:17.422Z,60
2022-09-03T11:51:11.757Z,60
2022-09-03T11:52:19.257Z,60
2022-09-03T11:53:17.297Z,60
2022-09-03T11:54:11.771Z,60
2022-09-03T11:55:15.357Z,60
2022-09-03T11:56:13.459Z,60
2022-09-03T11:57:18.283Z,60
2022-09-03T11:58:17.419Z,60
2022-09-03T11:59:13.366Z,60
2022-09-03T12:00:19.474Z,60
2022-09-03T12:01:22.636Z,60
2022-09-03T12:02:17.523Z,60
2022-09-03T12:03:15.456Z,60
2022-09-03T12:04:18.294Z,60
2022-09-03T12:05:17.374Z,60
2022-09-03T12:06:15.385Z,61
2022-09-03T12:07:12.784Z,61
2022-09-03T12:08:17.034Z,61
2022-09-03T12:09:23.409Z,61
2022-09-03T12:10:09.915Z,61
2022-09-03T12:11:16.311Z,60
2022-09-03T12:12:14.717Z,61
2022-09-03T12:13:18.073Z,61
2022-09-03T12:14:20.073Z,61
2022-09-03T12:15:16.444Z,61
2022-09-03T12:16:14.845Z,62
2022-09-03T12:17:19.146Z,62
2022-09-03T12:18:12.955Z,61
2022-09-03T12:19:19.067Z,61
2022-09-03T12:20:18.858Z,62
2022-09-03T12:21:16.418Z,62
2022-09-03T12:22:16.826Z,62
2022-09-03T12:23:16.139Z,62
2022-09-03T12:24:17.383Z,62
2022-09-03T12:25:19.291Z,62
2022-09-03T12:26:17.391Z,62
2022-09-03T12:27:18.946Z,61
2022-09-03T12:28:12.294Z,61
2022-09-03T12:29:21.913Z,61
2022-09-03T12:30:18.363Z,61
2022-09-03T12:31:16.437Z,61
2022-09-03T12:32:15.627Z,61
2022-09-03T12:33:16.594Z,61
2022-09-03T12:34:18.021Z,61
2022-09-03T12:36:00.823Z,61
2022-09-03T12:37:14.901Z,61
2022-09-03T12:38:23.912Z,61
2022-09-03T12:41:32.583Z,61
2022-09-03T12:42:17.431Z,61
2022-09-03T12:43:52.701Z,61
2022-09-03T12:45:17.048Z,61
2022-09-03T12:46:20.125Z,61
2022-09-03T12:47:45.453Z,61
2022-09-03T12:49:46.984Z,60
2022-09-03T12:52:01.919Z,61
2022-09-03T12:53:11.038Z,61
2022-09-03T12:54:16.960Z,60
2022-09-03T12:55:17.034Z,60
2022-09-03T12:56:18.885Z,61
2022-09-03T12:57:16.967Z,60
2022-09-03T12:58:20.207Z,60
2022-09-03T12:59:16.486Z,61
2022-09-03T13:00:20.219Z,61
2022-09-03T13:01:11.205Z,61
2022-09-03T13:02:19.624Z,61
2022-09-03T13:03:17.153Z,61
2022-09-03T13:04:16.526Z,61
2022-09-03T13:05:18.575Z,61
2022-09-03T13:06:19.111Z,61
2022-09-03T13:07:15.731Z,60
2022-09-03T13:08:18.574Z,61
2022-09-03T13:09:13.693Z,61
2022-09-03T13:10:14.767Z,61
2022-09-03T13:11:18.590Z,61
2022-09-03T13:12:17.157Z,61
2022-09-03T13:13:15.792Z,61
2022-09-03T13:14:15.468Z,60
2022-09-03T13:15:18.813Z,61
2022-09-03T13:16:11.290Z,61
2022-09-03T13:17:16.300Z,61
2022-09-03T13:18:17.664Z,61
2022-09-03T13:19:15.927Z,60
2022-09-03T13:20:18.058Z,60
2022-09-03T13:21:20.270Z,60
2022-09-03T13:22:18.467Z,60
2022-09-03T13:23:14.250Z,60
2022-09-03T13:24:20.136Z,60
2022-09-03T13:25:14.984Z,60
2022-09-03T13:26:15.490Z,60
2022-09-03T13:27:17.752Z,60
2022-09-03T13:28:12.891Z,60
2022-09-03T13:29:16.793Z,60
2022-09-03T13:30:16.080Z,61
2022-09-03T13:31:17.041Z,61
2022-09-03T13:32:19.142Z,61
2022-09-03T13:33:19.410Z,61
2022-09-03T13:34:15.108Z,61
2022-09-03T13:35:17.084Z,61
2022-09-03T13:36:15.158Z,61
2022-09-03T13:37:17.224Z,61
2022-09-03T13:38:17.269Z,61
2022-09-03T13:39:21.415Z,60
2022-09-03T13:40:17.523Z,60
2022-09-03T13:41:17.372Z,61
2022-09-03T13:42:15.235Z,61
2022-09-03T13:43:20.747Z,61
2022-09-03T13:44:18.665Z,61
2022-09-03T13:45:15.411Z,61
2022-09-03T13:46:10.631Z,61
2022-09-03T13:47:12.406Z,61
2022-09-03T13:48:16.417Z,61
2022-09-03T13:49:16.949Z,60
2022-09-03T13:50:17.920Z,60
2022-09-03T13:51:16.610Z,61
2022-09-03T13:52:15.087Z,60
2022-09-03T13:53:14.050Z,60
2022-09-03T13:54:42.816Z,60
2022-09-03T13:55:17.803Z,60
2022-09-03T13:56:15.386Z,61
2022-09-03T13:57:16.894Z,61
2022-09-03T13:58:20.888Z,61
2022-09-03T13:59:15.699Z,60
2022-09-03T14:00:17.759Z,61
2022-09-03T14:01:11.253Z,61
2022-09-03T14:02:16.931Z,61
2022-09-03T14:03:09.252Z,61
2022-09-03T14:04:18.183Z,61
2022-09-03T14:05:18.970Z,61
2022-09-03T14:06:20.734Z,61
2022-09-03T14:07:17.239Z,61
2022-09-03T14:08:16.318Z,61
2022-09-03T14:09:21.325Z,61
2022-09-03T14:10:09.992Z,61
2022-09-03T14:11:18.186Z,61
2022-09-03T14:12:17.121Z,61
2022-09-03T14:13:17.546Z,61
2022-09-03T14:14:10.962Z,61
2022-09-03T14:15:15.626Z,61
2022-09-03T14:16:13.692Z,61
2022-09-03T14:17:15.920Z,61
2022-09-03T14:18:13.119Z,61
2022-09-03T14:19:17.327Z,61
2022-09-03T14:20:19.074Z,61
2022-09-03T14:21:21.435Z,61
2022-09-03T14:22:13.442Z,61
2022-09-03T14:23:18.654Z,61
2022-09-03T14:24:17.979Z,61
2022-09-03T14:25:17.697Z,61
2022-09-03T14:26:13.231Z,61
2022-09-03T14:27:16.296Z,62
2022-09-03T14:28:17.097Z,62